sensor_id;sensor_type;location;lat;lon;timestamp;temperature;humidity
6357;DHT22;3211;53.452;-2.264;2024-01-15T00:01:53;1.90;99.90
6357;DHT22;3211;53.452;-2.264;2024-01-15T00:04:41;1.80;99.90
6357;DHT22;3211;53.452;-2.264;2024-01-15T00:07:29;1.90;99.90
6357;DHT22;3211;53.452;-2.264;2024-01-15T00:10:16;2.00;99.90
6357;DHT22;3211;53.452;-2.264;2024-01-15T00:13:04;2.00;99.90
6357;DHT22;3211;53.452;-2.264;2024-01-15T00:15:52;2.10;99.90
6357;DHT22;3211;53.452;-2.264;2024-01-15T00:18:40;1.90;99.90
6357;DHT22;3211;53.452;-2.264;2024-01-15T00:21:27;2.00;99.90
6357;DHT22;3211;53.452;-2.264;2024-01-15T00:24:15;1.90;99.90
6357;DHT22;3211;53.452;-2.264;2024-01-15T00:27:03;1.80;99.90
6357;DHT22;3211;53.452;-2.264;2024-01-15T00:29:51;1.70;99.90
6357;DHT22;3211;53.452;-2.264;2024-01-15T00:32:40;1.70;99.90
6357;DHT22;3211;53.452;-2.264;2024-01-15T00:35:27;1.70;99.90
6357;DHT22;3211;53.452;-2.264;2024-01-15T00:38:14;1.60;99.90
6357;DHT22;3211;53.452;-2.264;2024-01-15T00:41:02;1.60;99.90
6357;DHT22;3211;53.452;-2.264;2024-01-15T00:43:50;1.70;99.90
6357;DHT22;3211;53.452;-2.264;2024-01-15T00:46:43;1.40;99.90
6357;DHT22;3211;53.452;-2.264;2024-01-15T00:49:32;1.50;99.90
6357;DHT22;3211;53.452;-2.264;2024-01-15T00:52:19;1.50;99.90
6357;DHT22;3211;53.452;-2.264;2024-01-15T00:55:07;1.60;99.90
6357;DHT22;3211;53.452;-2.264;2024-01-15T00:57:54;1.60;99.90
6357;DHT22;3211;53.452;-2.264;2024-01-15T01:00:42;1.40;99.90
6357;DHT22;3211;53.452;-2.264;2024-01-15T01:03:30;1.50;99.90
6357;DHT22;3211;53.452;-2.264;2024-01-15T01:06:18;1.60;99.90
6357;DHT22;3211;53.452;-2.264;2024-01-15T01:09:06;1.40;99.90
6357;DHT22;3211;53.452;-2.264;2024-01-15T01:11:53;1.40;99.90
6357;DHT22;3211;53.452;-2.264;2024-01-15T01:14:41;1.50;99.90
6357;DHT22;3211;53.452;-2.264;2024-01-15T01:17:29;1.50;99.90
6357;DHT22;3211;53.452;-2.264;2024-01-15T01:20:17;1.40;99.90
6357;DHT22;3211;53.452;-2.264;2024-01-15T01:23:06;1.50;99.90
6357;DHT22;3211;53.452;-2.264;2024-01-15T01:25:53;1.40;99.90
6357;DHT22;3211;53.452;-2.264;2024-01-15T01:28:41;1.40;99.90
6357;DHT22;3211;53.452;-2.264;2024-01-15T01:31:28;1.40;99.90
6357;DHT22;3211;53.452;-2.264;2024-01-15T01:34:16;1.60;99.90
6357;DHT22;3211;53.452;-2.264;2024-01-15T01:37:04;1.50;99.90
6357;DHT22;3211;53.452;-2.264;2024-01-15T01:39:52;1.50;99.90
6357;DHT22;3211;53.452;-2.264;2024-01-15T01:42:40;1.50;99.90
6357;DHT22;3211;53.452;-2.264;2024-01-15T01:45:27;1.50;99.90
6357;DHT22;3211;53.452;-2.264;2024-01-15T01:48:14;1.50;99.90
6357;DHT22;3211;53.452;-2.264;2024-01-15T01:51:03;1.40;99.90
6357;DHT22;3211;53.452;-2.264;2024-01-15T01:53:51;1.50;99.90
6357;DHT22;3211;53.452;-2.264;2024-01-15T01:56:40;1.50;99.90
6357;DHT22;3211;53.452;-2.264;2024-01-15T01:59:28;1.50;99.90
6357;DHT22;3211;53.452;-2.264;2024-01-15T02:02:18;1.60;99.90
6357;DHT22;3211;53.452;-2.264;2024-01-15T02:05:06;1.50;99.90
6357;DHT22;3211;53.452;-2.264;2024-01-15T02:07:54;1.50;99.90
6357;DHT22;3211;53.452;-2.264;2024-01-15T02:10:42;1.50;99.90
6357;DHT22;3211;53.452;-2.264;2024-01-15T02:13:31;1.50;99.90
6357;DHT22;3211;53.452;-2.264;2024-01-15T02:16:18;1.40;99.90
6357;DHT22;3211;53.452;-2.264;2024-01-15T02:19:06;1.30;99.90
6357;DHT22;3211;53.452;-2.264;2024-01-15T02:21:53;1.30;99.90
6357;DHT22;3211;53.452;-2.264;2024-01-15T02:24:42;1.30;99.90
6357;DHT22;3211;53.452;-2.264;2024-01-15T02:27:29;1.30;99.90
6357;DHT22;3211;53.452;-2.264;2024-01-15T02:30:17;1.20;99.90
6357;DHT22;3211;53.452;-2.264;2024-01-15T02:33:05;1.20;99.90
6357;DHT22;3211;53.452;-2.264;2024-01-15T02:35:52;1.20;99.90
6357;DHT22;3211;53.452;-2.264;2024-01-15T02:38:39;1.20;99.90
6357;DHT22;3211;53.452;-2.264;2024-01-15T02:41:30;1.20;99.90
6357;DHT22;3211;53.452;-2.264;2024-01-15T02:44:17;1.10;99.90
6357;DHT22;3211;53.452;-2.264;2024-01-15T02:47:05;1.30;99.90
6357;DHT22;3211;53.452;-2.264;2024-01-15T02:49:52;1.10;99.90
6357;DHT22;3211;53.452;-2.264;2024-01-15T02:52:40;0.90;99.90
6357;DHT22;3211;53.452;-2.264;2024-01-15T02:55:28;0.80;99.90
6357;DHT22;3211;53.452;-2.264;2024-01-15T02:58:18;0.70;99.90
6357;DHT22;3211;53.452;-2.264;2024-01-15T03:01:05;0.80;99.90
6357;DHT22;3211;53.452;-2.264;2024-01-15T03:03:52;0.80;99.90
6357;DHT22;3211;53.452;-2.264;2024-01-15T03:06:41;0.90;99.90
6357;DHT22;3211;53.452;-2.264;2024-01-15T03:09:28;0.80;99.90
6357;DHT22;3211;53.452;-2.264;2024-01-15T03:12:16;0.70;99.90
6357;DHT22;3211;53.452;-2.264;2024-01-15T03:15:06;0.60;99.90
6357;DHT22;3211;53.452;-2.264;2024-01-15T03:17:53;0.40;99.90
6357;DHT22;3211;53.452;-2.264;2024-01-15T03:20:40;0.40;99.90
6357;DHT22;3211;53.452;-2.264;2024-01-15T03:23:28;0.40;99.90
6357;DHT22;3211;53.452;-2.264;2024-01-15T03:26:15;0.40;99.90
6357;DHT22;3211;53.452;-2.264;2024-01-15T03:29:03;0.60;99.90
6357;DHT22;3211;53.452;-2.264;2024-01-15T03:31:51;0.80;99.90
6357;DHT22;3211;53.452;-2.264;2024-01-15T03:34:39;0.70;99.90
6357;DHT22;3211;53.452;-2.264;2024-01-15T03:37:26;0.50;99.90
6357;DHT22;3211;53.452;-2.264;2024-01-15T03:40:13;0.30;99.90
6357;DHT22;3211;53.452;-2.264;2024-01-15T03:43:01;0.30;99.90
6357;DHT22;3211;53.452;-2.264;2024-01-15T03:45:48;0.20;99.90
6357;DHT22;3211;53.452;-2.264;2024-01-15T03:48:37;0.30;99.90
6357;DHT22;3211;53.452;-2.264;2024-01-15T03:51:25;0.30;99.90
6357;DHT22;3211;53.452;-2.264;2024-01-15T03:54:12;0.30;99.90
6357;DHT22;3211;53.452;-2.264;2024-01-15T03:57:00;0.20;99.90
6357;DHT22;3211;53.452;-2.264;2024-01-15T03:59:47;0.20;99.90
6357;DHT22;3211;53.452;-2.264;2024-01-15T04:02:34;0.10;99.90
6357;DHT22;3211;53.452;-2.264;2024-01-15T04:05:23;0.20;99.90
6357;DHT22;3211;53.452;-2.264;2024-01-15T04:08:10;0.10;99.90
6357;DHT22;3211;53.452;-2.264;2024-01-15T04:10:58;0.10;99.90
6357;DHT22;3211;53.452;-2.264;2024-01-15T04:13:45;0.20;99.90
6357;DHT22;3211;53.452;-2.264;2024-01-15T04:16:32;0.20;99.90
6357;DHT22;3211;53.452;-2.264;2024-01-15T04:19:19;0.20;99.90
6357;DHT22;3211;53.452;-2.264;2024-01-15T04:22:08;-0.20;99.90
6357;DHT22;3211;53.452;-2.264;2024-01-15T04:24:55;0.00;99.90
6357;DHT22;3211;53.452;-2.264;2024-01-15T04:27:43;-0.20;99.90
6357;DHT22;3211;53.452;-2.264;2024-01-15T04:30:30;0.10;99.90
6357;DHT22;3211;53.452;-2.264;2024-01-15T04:33:17;0.20;99.90
6357;DHT22;3211;53.452;-2.264;2024-01-15T04:36:05;0.10;99.90
6357;DHT22;3211;53.452;-2.264;2024-01-15T04:38:54;0.20;99.90
6357;DHT22;3211;53.452;-2.264;2024-01-15T04:41:41;0.20;99.90
6357;DHT22;3211;53.452;-2.264;2024-01-15T04:44:29;0.00;99.90
6357;DHT22;3211;53.452;-2.264;2024-01-15T04:47:16;0.10;99.90
6357;DHT22;3211;53.452;-2.264;2024-01-15T04:50:04;0.00;99.90
6357;DHT22;3211;53.452;-2.264;2024-01-15T04:52:52;0.10;99.90
6357;DHT22;3211;53.452;-2.264;2024-01-15T04:55:41;0.00;99.90
6357;DHT22;3211;53.452;-2.264;2024-01-15T04:58:28;0.10;99.90
6357;DHT22;3211;53.452;-2.264;2024-01-15T05:01:16;0.10;99.90
6357;DHT22;3211;53.452;-2.264;2024-01-15T05:04:03;0.20;99.90
6357;DHT22;3211;53.452;-2.264;2024-01-15T05:06:51;0.20;99.90
6357;DHT22;3211;53.452;-2.264;2024-01-15T05:09:38;0.20;99.90
6357;DHT22;3211;53.452;-2.264;2024-01-15T05:12:27;0.20;99.90
6357;DHT22;3211;53.452;-2.264;2024-01-15T05:15:14;0.20;99.90
6357;DHT22;3211;53.452;-2.264;2024-01-15T05:18:01;0.00;99.90
6357;DHT22;3211;53.452;-2.264;2024-01-15T05:20:49;-0.10;99.90
6357;DHT22;3211;53.452;-2.264;2024-01-15T05:23:36;-0.10;99.90
6357;DHT22;3211;53.452;-2.264;2024-01-15T05:26:23;-0.10;99.90
6357;DHT22;3211;53.452;-2.264;2024-01-15T05:29:12;-0.20;99.90
6357;DHT22;3211;53.452;-2.264;2024-01-15T05:31:59;-0.20;99.90
6357;DHT22;3211;53.452;-2.264;2024-01-15T05:34:46;-0.30;99.90
6357;DHT22;3211;53.452;-2.264;2024-01-15T05:37:34;-0.30;99.90
6357;DHT22;3211;53.452;-2.264;2024-01-15T05:40:21;-0.20;99.90
6357;DHT22;3211;53.452;-2.264;2024-01-15T05:43:08;-0.20;99.90
6357;DHT22;3211;53.452;-2.264;2024-01-15T05:45:57;-0.20;99.90
6357;DHT22;3211;53.452;-2.264;2024-01-15T05:48:45;-0.20;99.90
6357;DHT22;3211;53.452;-2.264;2024-01-15T05:51:32;-0.20;99.90
6357;DHT22;3211;53.452;-2.264;2024-01-15T05:54:19;-0.30;99.90
6357;DHT22;3211;53.452;-2.264;2024-01-15T05:57:07;-0.20;99.90
6357;DHT22;3211;53.452;-2.264;2024-01-15T05:59:54;-0.30;99.90
6357;DHT22;3211;53.452;-2.264;2024-01-15T06:02:43;-0.20;99.90
6357;DHT22;3211;53.452;-2.264;2024-01-15T06:05:30;0.00;99.90
6357;DHT22;3211;53.452;-2.264;2024-01-15T06:08:17;0.00;99.90
6357;DHT22;3211;53.452;-2.264;2024-01-15T06:11:07;0.00;99.90
6357;DHT22;3211;53.452;-2.264;2024-01-15T06:13:54;0.10;99.90
6357;DHT22;3211;53.452;-2.264;2024-01-15T06:16:41;0.00;99.90
6357;DHT22;3211;53.452;-2.264;2024-01-15T06:19:30;-0.10;99.90
6357;DHT22;3211;53.452;-2.264;2024-01-15T06:22:17;-0.20;99.90
6357;DHT22;3211;53.452;-2.264;2024-01-15T06:25:06;-0.20;99.90
6357;DHT22;3211;53.452;-2.264;2024-01-15T06:27:53;-0.20;99.90
6357;DHT22;3211;53.452;-2.264;2024-01-15T06:30:40;-0.30;99.90
6357;DHT22;3211;53.452;-2.264;2024-01-15T06:33:28;-0.30;99.90
6357;DHT22;3211;53.452;-2.264;2024-01-15T06:36:17;-0.30;99.90
6357;DHT22;3211;53.452;-2.264;2024-01-15T06:39:04;-0.30;99.90
6357;DHT22;3211;53.452;-2.264;2024-01-15T06:41:51;-0.30;99.90
6357;DHT22;3211;53.452;-2.264;2024-01-15T06:44:38;-0.40;99.90
6357;DHT22;3211;53.452;-2.264;2024-01-15T06:47:26;-0.30;99.90
6357;DHT22;3211;53.452;-2.264;2024-01-15T06:50:13;-0.30;99.90
6357;DHT22;3211;53.452;-2.264;2024-01-15T06:53:02;-0.20;99.90
6357;DHT22;3211;53.452;-2.264;2024-01-15T06:55:49;-0.20;99.90
6357;DHT22;3211;53.452;-2.264;2024-01-15T06:58:37;-0.20;99.90
6357;DHT22;3211;53.452;-2.264;2024-01-15T07:01:24;-0.30;99.90
6357;DHT22;3211;53.452;-2.264;2024-01-15T07:04:12;-0.20;99.90
6357;DHT22;3211;53.452;-2.264;2024-01-15T07:06:59;-0.30;99.90
6357;DHT22;3211;53.452;-2.264;2024-01-15T07:09:47;-0.20;99.90
6357;DHT22;3211;53.452;-2.264;2024-01-15T07:12:38;-0.10;99.90
6357;DHT22;3211;53.452;-2.264;2024-01-15T07:15:25;-0.10;99.90
6357;DHT22;3211;53.452;-2.264;2024-01-15T07:18:12;-0.10;99.90
6357;DHT22;3211;53.452;-2.264;2024-01-15T07:20:59;-0.30;99.90
6357;DHT22;3211;53.452;-2.264;2024-01-15T07:23:48;-0.40;99.90
6357;DHT22;3211;53.452;-2.264;2024-01-15T07:26:37;-0.50;99.90
6357;DHT22;3211;53.452;-2.264;2024-01-15T07:29:24;-0.50;99.90
6357;DHT22;3211;53.452;-2.264;2024-01-15T07:32:11;-0.50;99.90
6357;DHT22;3211;53.452;-2.264;2024-01-15T07:34:59;-0.60;99.90
6357;DHT22;3211;53.452;-2.264;2024-01-15T07:37:46;-0.40;99.90
6357;DHT22;3211;53.452;-2.264;2024-01-15T07:40:39;-0.30;99.90
6357;DHT22;3211;53.452;-2.264;2024-01-15T07:43:28;-0.20;99.90
6357;DHT22;3211;53.452;-2.264;2024-01-15T07:46:15;-0.20;99.90
6357;DHT22;3211;53.452;-2.264;2024-01-15T07:49:03;-0.20;99.90
6357;DHT22;3211;53.452;-2.264;2024-01-15T07:51:51;-0.10;99.90
6357;DHT22;3211;53.452;-2.264;2024-01-15T07:54:38;0.00;99.90
6357;DHT22;3211;53.452;-2.264;2024-01-15T07:57:26;0.00;99.90
6357;DHT22;3211;53.452;-2.264;2024-01-15T08:00:15;0.10;99.90
6357;DHT22;3211;53.452;-2.264;2024-01-15T08:03:03;0.10;99.90
6357;DHT22;3211;53.452;-2.264;2024-01-15T08:05:50;0.10;99.90
6357;DHT22;3211;53.452;-2.264;2024-01-15T08:08:38;0.10;99.90
6357;DHT22;3211;53.452;-2.264;2024-01-15T08:11:26;0.10;99.90
6357;DHT22;3211;53.452;-2.264;2024-01-15T08:14:14;0.20;99.90
6357;DHT22;3211;53.452;-2.264;2024-01-15T08:17:02;0.20;99.90
6357;DHT22;3211;53.452;-2.264;2024-01-15T08:19:50;0.30;99.90
6357;DHT22;3211;53.452;-2.264;2024-01-15T08:22:38;0.30;99.90
6357;DHT22;3211;53.452;-2.264;2024-01-15T08:25:25;0.20;99.90
6357;DHT22;3211;53.452;-2.264;2024-01-15T08:28:13;0.10;99.90
6357;DHT22;3211;53.452;-2.264;2024-01-15T08:31:00;0.00;99.90
6357;DHT22;3211;53.452;-2.264;2024-01-15T08:33:48;0.00;99.90
6357;DHT22;3211;53.452;-2.264;2024-01-15T08:36:36;-0.10;99.90
6357;DHT22;3211;53.452;-2.264;2024-01-15T08:39:23;-0.30;99.90
6357;DHT22;3211;53.452;-2.264;2024-01-15T08:42:10;-0.20;99.90
6357;DHT22;3211;53.452;-2.264;2024-01-15T08:44:58;0.10;99.90
6357;DHT22;3211;53.452;-2.264;2024-01-15T08:47:45;0.20;99.90
6357;DHT22;3211;53.452;-2.264;2024-01-15T08:50:33;0.10;99.90
6357;DHT22;3211;53.452;-2.264;2024-01-15T08:53:21;0.00;99.90
6357;DHT22;3211;53.452;-2.264;2024-01-15T08:56:08;0.30;99.90
6357;DHT22;3211;53.452;-2.264;2024-01-15T08:58:55;0.30;99.90
6357;DHT22;3211;53.452;-2.264;2024-01-15T09:01:43;0.30;99.90
6357;DHT22;3211;53.452;-2.264;2024-01-15T09:04:30;0.40;99.90
6357;DHT22;3211;53.452;-2.264;2024-01-15T09:07:19;0.30;99.90
6357;DHT22;3211;53.452;-2.264;2024-01-15T09:10:07;0.30;99.90
6357;DHT22;3211;53.452;-2.264;2024-01-15T09:12:54;0.50;99.90
6357;DHT22;3211;53.452;-2.264;2024-01-15T09:15:42;0.60;99.90
6357;DHT22;3211;53.452;-2.264;2024-01-15T09:18:29;0.70;99.90
6357;DHT22;3211;53.452;-2.264;2024-01-15T09:21:17;0.60;99.90
6357;DHT22;3211;53.452;-2.264;2024-01-15T09:24:07;0.60;99.90
6357;DHT22;3211;53.452;-2.264;2024-01-15T09:26:54;0.60;99.90
6357;DHT22;3211;53.452;-2.264;2024-01-15T09:29:42;0.70;99.90
6357;DHT22;3211;53.452;-2.264;2024-01-15T09:32:31;0.80;99.90
6357;DHT22;3211;53.452;-2.264;2024-01-15T09:35:19;1.00;99.90
6357;DHT22;3211;53.452;-2.264;2024-01-15T09:38:07;1.20;99.90
6357;DHT22;3211;53.452;-2.264;2024-01-15T09:40:55;1.20;99.90
6357;DHT22;3211;53.452;-2.264;2024-01-15T09:43:43;1.20;99.90
6357;DHT22;3211;53.452;-2.264;2024-01-15T09:46:31;0.90;99.90
6357;DHT22;3211;53.452;-2.264;2024-01-15T09:49:19;1.10;99.90
6357;DHT22;3211;53.452;-2.264;2024-01-15T09:52:07;1.40;99.90
6357;DHT22;3211;53.452;-2.264;2024-01-15T09:54:55;1.60;99.90
6357;DHT22;3211;53.452;-2.264;2024-01-15T09:57:44;1.40;99.90
6357;DHT22;3211;53.452;-2.264;2024-01-15T10:00:33;1.50;99.90
6357;DHT22;3211;53.452;-2.264;2024-01-15T10:03:22;1.40;99.90
6357;DHT22;3211;53.452;-2.264;2024-01-15T10:06:11;1.40;99.90
6357;DHT22;3211;53.452;-2.264;2024-01-15T10:09:03;1.50;99.90
6357;DHT22;3211;53.452;-2.264;2024-01-15T10:11:50;1.60;99.90
6357;DHT22;3211;53.452;-2.264;2024-01-15T10:14:39;1.70;99.90
6357;DHT22;3211;53.452;-2.264;2024-01-15T10:17:27;1.80;99.90
6357;DHT22;3211;53.452;-2.264;2024-01-15T10:20:15;2.00;99.90
6357;DHT22;3211;53.452;-2.264;2024-01-15T10:23:03;2.10;99.90
6357;DHT22;3211;53.452;-2.264;2024-01-15T10:25:51;2.40;99.90
6357;DHT22;3211;53.452;-2.264;2024-01-15T10:28:38;2.50;99.90
6357;DHT22;3211;53.452;-2.264;2024-01-15T10:31:27;2.30;99.90
6357;DHT22;3211;53.452;-2.264;2024-01-15T10:34:14;2.60;99.90
6357;DHT22;3211;53.452;-2.264;2024-01-15T10:37:02;2.70;99.90
6357;DHT22;3211;53.452;-2.264;2024-01-15T10:39:49;3.00;99.90
6357;DHT22;3211;53.452;-2.264;2024-01-15T10:42:37;3.10;99.90
6357;DHT22;3211;53.452;-2.264;2024-01-15T10:45:24;3.20;99.90
6357;DHT22;3211;53.452;-2.264;2024-01-15T10:48:13;3.20;99.90
6357;DHT22;3211;53.452;-2.264;2024-01-15T10:51:01;3.30;99.90
6357;DHT22;3211;53.452;-2.264;2024-01-15T10:53:55;3.40;99.90
6357;DHT22;3211;53.452;-2.264;2024-01-15T10:56:44;3.50;99.90
6357;DHT22;3211;53.452;-2.264;2024-01-15T10:59:32;3.50;99.90
6357;DHT22;3211;53.452;-2.264;2024-01-15T11:02:20;3.50;99.90
6357;DHT22;3211;53.452;-2.264;2024-01-15T11:05:09;3.80;99.90
6357;DHT22;3211;53.452;-2.264;2024-01-15T11:07:56;3.70;99.90
6357;DHT22;3211;53.452;-2.264;2024-01-15T11:10:46;3.60;99.90
6357;DHT22;3211;53.452;-2.264;2024-01-15T11:13:41;3.50;99.90
6357;DHT22;3211;53.452;-2.264;2024-01-15T11:16:53;3.80;99.90
6357;DHT22;3211;53.452;-2.264;2024-01-15T11:19:43;3.90;99.90
6357;DHT22;3211;53.452;-2.264;2024-01-15T11:22:50;3.90;99.90
6357;DHT22;3211;53.452;-2.264;2024-01-15T11:25:38;4.20;99.90
6357;DHT22;3211;53.452;-2.264;2024-01-15T11:28:49;4.20;99.90
6357;DHT22;3211;53.452;-2.264;2024-01-15T11:32:01;4.20;99.90
6357;DHT22;3211;53.452;-2.264;2024-01-15T11:34:55;4.60;99.90
6357;DHT22;3211;53.452;-2.264;2024-01-15T11:38:00;4.20;99.90
6357;DHT22;3211;53.452;-2.264;2024-01-15T11:40:50;4.10;99.90
6357;DHT22;3211;53.452;-2.264;2024-01-15T11:43:37;4.20;99.90
6357;DHT22;3211;53.452;-2.264;2024-01-15T11:46:26;4.70;99.90
6357;DHT22;3211;53.452;-2.264;2024-01-15T11:49:38;4.90;99.90
6357;DHT22;3211;53.452;-2.264;2024-01-15T11:52:33;4.80;99.90
6357;DHT22;3211;53.452;-2.264;2024-01-15T11:55:27;4.80;99.90
6357;DHT22;3211;53.452;-2.264;2024-01-15T11:58:15;4.90;99.90
6357;DHT22;3211;53.452;-2.264;2024-01-15T12:01:03;5.20;99.90
6357;DHT22;3211;53.452;-2.264;2024-01-15T12:03:51;5.20;99.90
6357;DHT22;3211;53.452;-2.264;2024-01-15T12:06:38;4.80;99.90
6357;DHT22;3211;53.452;-2.264;2024-01-15T12:09:26;4.90;99.90
6357;DHT22;3211;53.452;-2.264;2024-01-15T12:12:22;5.10;99.90
6357;DHT22;3211;53.452;-2.264;2024-01-15T12:15:11;5.20;99.90
6357;DHT22;3211;53.452;-2.264;2024-01-15T12:18:00;5.30;99.90
6357;DHT22;3211;53.452;-2.264;2024-01-15T12:20:48;5.10;99.90
6357;DHT22;3211;53.452;-2.264;2024-01-15T12:23:35;5.40;99.90
6357;DHT22;3211;53.452;-2.264;2024-01-15T12:26:22;5.70;99.90
6357;DHT22;3211;53.452;-2.264;2024-01-15T12:29:11;5.70;99.90
6357;DHT22;3211;53.452;-2.264;2024-01-15T12:31:59;5.80;99.90
6357;DHT22;3211;53.452;-2.264;2024-01-15T12:34:46;5.70;99.90
6357;DHT22;3211;53.452;-2.264;2024-01-15T12:37:35;5.90;99.90
6357;DHT22;3211;53.452;-2.264;2024-01-15T12:40:23;5.50;99.90
6357;DHT22;3211;53.452;-2.264;2024-01-15T12:43:11;5.60;99.90
6357;DHT22;3211;53.452;-2.264;2024-01-15T12:46:00;5.80;99.90
6357;DHT22;3211;53.452;-2.264;2024-01-15T12:48:47;6.00;99.90
6357;DHT22;3211;53.452;-2.264;2024-01-15T12:51:34;5.80;99.90
6357;DHT22;3211;53.452;-2.264;2024-01-15T12:54:22;5.90;99.90
6357;DHT22;3211;53.452;-2.264;2024-01-15T12:57:10;5.80;99.90
6357;DHT22;3211;53.452;-2.264;2024-01-15T12:59:58;5.80;99.90
6357;DHT22;3211;53.452;-2.264;2024-01-15T13:02:46;5.60;99.90
6357;DHT22;3211;53.452;-2.264;2024-01-15T13:05:35;5.50;99.90
6357;DHT22;3211;53.452;-2.264;2024-01-15T13:08:23;5.40;99.90
6357;DHT22;3211;53.452;-2.264;2024-01-15T13:11:12;5.60;99.90
6357;DHT22;3211;53.452;-2.264;2024-01-15T13:14:00;5.70;99.90
6357;DHT22;3211;53.452;-2.264;2024-01-15T13:16:47;5.70;99.90
6357;DHT22;3211;53.452;-2.264;2024-01-15T13:19:36;5.50;99.90
6357;DHT22;3211;53.452;-2.264;2024-01-15T13:22:23;5.30;99.90
6357;DHT22;3211;53.452;-2.264;2024-01-15T13:25:15;5.20;99.90
6357;DHT22;3211;53.452;-2.264;2024-01-15T13:28:03;5.00;99.90
6357;DHT22;3211;53.452;-2.264;2024-01-15T13:30:50;5.00;99.90
6357;DHT22;3211;53.452;-2.264;2024-01-15T13:33:38;5.00;99.90
6357;DHT22;3211;53.452;-2.264;2024-01-15T13:36:27;4.90;99.90
6357;DHT22;3211;53.452;-2.264;2024-01-15T13:39:14;4.70;99.90
6357;DHT22;3211;53.452;-2.264;2024-01-15T13:42:05;5.10;99.90
6357;DHT22;3211;53.452;-2.264;2024-01-15T13:44:53;4.90;99.90
6357;DHT22;3211;53.452;-2.264;2024-01-15T13:47:40;5.00;99.90
6357;DHT22;3211;53.452;-2.264;2024-01-15T13:50:29;5.00;99.90
6357;DHT22;3211;53.452;-2.264;2024-01-15T13:53:18;4.90;99.90
6357;DHT22;3211;53.452;-2.264;2024-01-15T13:56:06;4.80;99.90
6357;DHT22;3211;53.452;-2.264;2024-01-15T13:58:53;4.70;99.90
6357;DHT22;3211;53.452;-2.264;2024-01-15T14:01:40;4.80;99.90
6357;DHT22;3211;53.452;-2.264;2024-01-15T14:04:29;4.70;99.90
6357;DHT22;3211;53.452;-2.264;2024-01-15T14:07:16;4.90;99.90
6357;DHT22;3211;53.452;-2.264;2024-01-15T14:10:06;5.00;99.90
6357;DHT22;3211;53.452;-2.264;2024-01-15T14:12:53;5.20;99.90
6357;DHT22;3211;53.452;-2.264;2024-01-15T14:15:41;5.30;99.90
6357;DHT22;3211;53.452;-2.264;2024-01-15T14:18:28;5.00;99.90
6357;DHT22;3211;53.452;-2.264;2024-01-15T14:21:15;5.30;99.90
6357;DHT22;3211;53.452;-2.264;2024-01-15T14:24:03;5.50;99.90
6357;DHT22;3211;53.452;-2.264;2024-01-15T14:26:51;5.70;99.90
6357;DHT22;3211;53.452;-2.264;2024-01-15T14:29:39;5.50;99.90
6357;DHT22;3211;53.452;-2.264;2024-01-15T14:32:26;5.20;99.90
6357;DHT22;3211;53.452;-2.264;2024-01-15T14:35:14;5.00;99.90
6357;DHT22;3211;53.452;-2.264;2024-01-15T14:38:01;4.90;99.90
6357;DHT22;3211;53.452;-2.264;2024-01-15T14:40:48;4.50;99.90
6357;DHT22;3211;53.452;-2.264;2024-01-15T14:43:37;4.40;99.90
6357;DHT22;3211;53.452;-2.264;2024-01-15T14:46:24;4.10;99.90
6357;DHT22;3211;53.452;-2.264;2024-01-15T14:49:13;4.00;99.90
6357;DHT22;3211;53.452;-2.264;2024-01-15T14:52:03;4.10;99.90
6357;DHT22;3211;53.452;-2.264;2024-01-15T14:54:50;4.00;99.90
6357;DHT22;3211;53.452;-2.264;2024-01-15T14:57:37;3.80;99.90
6357;DHT22;3211;53.452;-2.264;2024-01-15T15:00:26;3.80;99.90
6357;DHT22;3211;53.452;-2.264;2024-01-15T15:03:13;3.90;99.90
6357;DHT22;3211;53.452;-2.264;2024-01-15T15:06:01;3.90;99.90
6357;DHT22;3211;53.452;-2.264;2024-01-15T15:08:48;3.90;99.90
6357;DHT22;3211;53.452;-2.264;2024-01-15T15:11:36;4.00;99.90
6357;DHT22;3211;53.452;-2.264;2024-01-15T15:14:23;3.90;99.90
6357;DHT22;3211;53.452;-2.264;2024-01-15T15:17:12;3.80;99.90
6357;DHT22;3211;53.452;-2.264;2024-01-15T15:19:59;3.80;99.90
6357;DHT22;3211;53.452;-2.264;2024-01-15T15:22:48;3.70;99.90
6357;DHT22;3211;53.452;-2.264;2024-01-15T15:25:35;3.70;99.90
6357;DHT22;3211;53.452;-2.264;2024-01-15T15:28:23;3.60;99.90
6357;DHT22;3211;53.452;-2.264;2024-01-15T15:31:11;3.60;99.90
6357;DHT22;3211;53.452;-2.264;2024-01-15T15:37:20;3.50;99.90
6357;DHT22;3211;53.452;-2.264;2024-01-15T15:40:09;3.50;99.90
6357;DHT22;3211;53.452;-2.264;2024-01-15T15:42:57;3.40;99.90
6357;DHT22;3211;53.452;-2.264;2024-01-15T15:45:44;3.50;99.90
6357;DHT22;3211;53.452;-2.264;2024-01-15T15:48:31;3.40;99.90
6357;DHT22;3211;53.452;-2.264;2024-01-15T15:51:20;3.20;99.90
6357;DHT22;3211;53.452;-2.264;2024-01-15T15:54:08;3.30;99.90
6357;DHT22;3211;53.452;-2.264;2024-01-15T15:56:57;3.30;99.90
6357;DHT22;3211;53.452;-2.264;2024-01-15T15:59:44;3.20;99.90
6357;DHT22;3211;53.452;-2.264;2024-01-15T16:02:31;3.00;99.90
6357;DHT22;3211;53.452;-2.264;2024-01-15T16:05:19;3.00;99.90
6357;DHT22;3211;53.452;-2.264;2024-01-15T16:08:07;3.10;99.90
6357;DHT22;3211;53.452;-2.264;2024-01-15T16:10:55;3.10;99.90
6357;DHT22;3211;53.452;-2.264;2024-01-15T16:13:42;3.00;99.90
6357;DHT22;3211;53.452;-2.264;2024-01-15T16:16:29;3.00;99.90
6357;DHT22;3211;53.452;-2.264;2024-01-15T16:19:17;2.90;99.90
6357;DHT22;3211;53.452;-2.264;2024-01-15T16:22:04;2.80;99.90
6357;DHT22;3211;53.452;-2.264;2024-01-15T16:24:53;2.80;99.90
6357;DHT22;3211;53.452;-2.264;2024-01-15T16:27:40;2.80;99.90
6357;DHT22;3211;53.452;-2.264;2024-01-15T16:30:28;2.70;99.90
6357;DHT22;3211;53.452;-2.264;2024-01-15T16:33:15;2.60;99.90
6357;DHT22;3211;53.452;-2.264;2024-01-15T16:36:03;2.50;99.90
6357;DHT22;3211;53.452;-2.264;2024-01-15T16:38:51;2.40;99.90
6357;DHT22;3211;53.452;-2.264;2024-01-15T16:41:39;2.40;99.90
6357;DHT22;3211;53.452;-2.264;2024-01-15T16:44:27;2.50;99.90
6357;DHT22;3211;53.452;-2.264;2024-01-15T16:47:14;2.50;99.90
6357;DHT22;3211;53.452;-2.264;2024-01-15T16:50:01;2.40;99.90
6357;DHT22;3211;53.452;-2.264;2024-01-15T16:52:49;2.40;99.90
6357;DHT22;3211;53.452;-2.264;2024-01-15T16:55:37;2.30;99.90
6357;DHT22;3211;53.452;-2.264;2024-01-15T16:58:25;2.30;99.90
6357;DHT22;3211;53.452;-2.264;2024-01-15T17:01:13;2.20;99.90
6357;DHT22;3211;53.452;-2.264;2024-01-15T17:04:00;2.10;99.90
6357;DHT22;3211;53.452;-2.264;2024-01-15T17:06:47;2.10;99.90
6357;DHT22;3211;53.452;-2.264;2024-01-15T17:09:35;2.00;99.90
6357;DHT22;3211;53.452;-2.264;2024-01-15T17:12:22;2.00;99.90
6357;DHT22;3211;53.452;-2.264;2024-01-15T17:15:11;1.90;99.90
6357;DHT22;3211;53.452;-2.264;2024-01-15T17:17:58;1.90;99.90
6357;DHT22;3211;53.452;-2.264;2024-01-15T17:20:45;1.70;99.90
6357;DHT22;3211;53.452;-2.264;2024-01-15T17:23:33;1.90;99.90
6357;DHT22;3211;53.452;-2.264;2024-01-15T17:26:20;2.00;99.90
6357;DHT22;3211;53.452;-2.264;2024-01-15T17:29:07;2.00;99.90
6357;DHT22;3211;53.452;-2.264;2024-01-15T17:31:56;2.10;99.90
6357;DHT22;3211;53.452;-2.264;2024-01-15T17:34:44;2.00;99.90
6357;DHT22;3211;53.452;-2.264;2024-01-15T17:37:32;2.00;99.90
6357;DHT22;3211;53.452;-2.264;2024-01-15T17:40:19;1.80;99.90
6357;DHT22;3211;53.452;-2.264;2024-01-15T17:43:08;1.60;99.90
6357;DHT22;3211;53.452;-2.264;2024-01-15T17:45:56;1.50;99.90
6357;DHT22;3211;53.452;-2.264;2024-01-15T17:48:48;1.40;99.90
6357;DHT22;3211;53.452;-2.264;2024-01-15T17:51:35;1.40;99.90
6357;DHT22;3211;53.452;-2.264;2024-01-15T17:54:22;1.30;99.90
6357;DHT22;3211;53.452;-2.264;2024-01-15T17:57:09;1.40;99.90
6357;DHT22;3211;53.452;-2.264;2024-01-15T17:59:57;1.40;99.90
6357;DHT22;3211;53.452;-2.264;2024-01-15T18:02:45;1.50;99.90
6357;DHT22;3211;53.452;-2.264;2024-01-15T18:05:33;1.50;99.90
6357;DHT22;3211;53.452;-2.264;2024-01-15T18:08:21;1.60;99.90
6357;DHT22;3211;53.452;-2.264;2024-01-15T18:11:14;1.60;99.90
6357;DHT22;3211;53.452;-2.264;2024-01-15T18:14:02;1.60;99.90
6357;DHT22;3211;53.452;-2.264;2024-01-15T18:16:49;1.60;99.90
6357;DHT22;3211;53.452;-2.264;2024-01-15T18:19:37;1.70;99.90